createdAt,value
2022-11-24T00:01:22.368Z,5.00
2022-11-24T00:03:59.987Z,6.28
2022-11-24T00:06:28.182Z,5.07
2022-11-24T00:08:54.830Z,5.35
2022-11-24T00:11:24.250Z,5.65
2022-11-24T00:13:50.716Z,5.55
2022-11-24T00:16:19.676Z,11.10
2022-11-24T00:18:48.152Z,6.30
2022-11-24T00:21:16.418Z,5.40
2022-11-24T00:23:43.541Z,8.13
2022-11-24T00:26:17.934Z,5.60
2022-11-24T00:28:45.863Z,9.82
2022-11-24T00:31:23.257Z,7.00
2022-11-24T00:33:52.915Z,6.18
2022-11-24T00:36:21.114Z,9.32
2022-11-24T00:38:47.776Z,7.70
2022-11-24T00:41:14.361Z,9.95
2022-11-24T00:43:40.761Z,8.38
2022-11-24T00:46:07.262Z,7.00
2022-11-24T00:48:33.680Z,6.63
2022-11-24T00:51:02.562Z,8.27
2022-11-24T00:53:29.808Z,7.05
2022-11-24T00:55:56.533Z,9.15
2022-11-24T00:58:24.533Z,8.60
2022-11-24T01:00:52.253Z,7.10
2022-11-24T01:03:20.277Z,7.60
2022-11-24T01:05:46.669Z,6.78
2022-11-24T01:08:13.058Z,7.43
2022-11-24T01:10:39.426Z,8.93
2022-11-24T01:13:06.067Z,6.38
2022-11-24T01:15:35.257Z,9.82
2022-11-24T01:18:01.790Z,7.72
2022-11-24T01:20:28.258Z,6.80
2022-11-24T01:22:54.594Z,7.75
2022-11-24T01:25:20.953Z,9.80
2022-11-24T01:27:47.327Z,8.55
2022-11-24T01:30:13.685Z,8.73
2022-11-24T01:32:40.045Z,9.10
2022-11-24T01:35:06.959Z,5.47
2022-11-24T01:37:33.447Z,10.88
2022-11-24T01:39:59.790Z,9.48
2022-11-24T01:42:26.187Z,12.07
2022-11-24T01:45:29.570Z,7.80
2022-11-24T01:47:56.672Z,10.57
2022-11-24T01:50:23.878Z,9.45
2022-11-24T01:52:53.868Z,14.32
2022-11-24T01:55:25.509Z,12.98
2022-11-24T01:57:59.650Z,10.55
2022-11-24T02:00:26.396Z,8.32
2022-11-24T02:02:53.450Z,9.70
2022-11-24T02:05:28.188Z,10.18
2022-11-24T02:07:57.222Z,12.07
2022-11-24T02:10:23.822Z,13.82
2022-11-24T02:12:53.362Z,12.50
2022-11-24T02:15:20.677Z,7.32
2022-11-24T02:17:47.022Z,10.45
2022-11-24T02:20:14.905Z,11.57
2022-11-24T02:23:03.036Z,10.60
2022-11-24T02:25:58.990Z,9.82
2022-11-24T02:28:30.130Z,9.75
2022-11-24T02:30:57.940Z,10.95
2022-11-24T02:33:25.251Z,10.77
2022-11-24T02:35:52.525Z,12.05
2022-11-24T02:38:19.214Z,9.40
2022-11-24T02:40:48.492Z,11.48
2022-11-24T02:43:20.576Z,10.25
2022-11-24T02:45:47.386Z,11.00
2022-11-24T02:48:15.438Z,14.90
2022-11-24T02:50:41.882Z,7.55
2022-11-24T02:53:08.274Z,13.00
2022-11-24T02:55:34.633Z,12.40
2022-11-24T02:58:00.993Z,11.07
2022-11-24T03:00:27.339Z,15.85
2022-11-24T03:02:53.794Z,17.23
2022-11-24T03:05:20.201Z,12.65
2022-11-24T03:07:46.679Z,17.55
2022-11-24T03:10:13.098Z,11.30
2022-11-24T03:12:39.706Z,14.43
2022-11-24T03:15:06.564Z,10.77
2022-11-24T03:17:32.897Z,10.73
2022-11-24T03:20:04.547Z,12.43
2022-11-24T03:22:31.077Z,9.50
2022-11-24T03:24:57.458Z,11.40
2022-11-24T03:27:23.828Z,12.70
2022-11-24T03:29:50.221Z,14.95
2022-11-24T03:32:16.666Z,14.45
2022-11-24T03:34:43.001Z,8.75
2022-11-24T03:37:09.504Z,12.48
2022-11-24T03:39:35.852Z,14.07
2022-11-24T03:42:02.212Z,11.00
2022-11-24T03:44:28.539Z,11.75
2022-11-24T03:46:54.929Z,10.13
2022-11-24T03:49:21.298Z,11.23
2022-11-24T03:51:47.627Z,14.98
2022-11-24T03:54:14.005Z,12.43
2022-11-24T03:56:40.328Z,11.02
2022-11-24T03:59:06.656Z,12.05
2022-11-24T04:01:33.040Z,11.55
2022-11-24T04:03:59.429Z,17.40
2022-11-24T04:06:25.889Z,11.85
2022-11-24T04:08:52.294Z,16.92
2022-11-24T04:11:47.893Z,12.05
2022-11-24T04:14:14.366Z,15.13
2022-11-24T04:16:41.268Z,15.07
2022-11-24T04:19:07.791Z,12.63
2022-11-24T04:21:34.143Z,14.75
2022-11-24T04:24:00.522Z,14.90
2022-11-24T04:26:27.693Z,13.05
2022-11-24T04:28:54.029Z,11.73
2022-11-24T04:31:20.431Z,14.77
2022-11-24T04:33:46.864Z,13.20
2022-11-24T04:36:13.251Z,14.13
2022-11-24T04:39:23.768Z,14.40
2022-11-24T04:41:25.991Z,17.08
2022-11-24T04:43:52.806Z,11.48
2022-11-24T04:46:19.227Z,14.20
2022-11-24T04:48:45.675Z,13.27
2022-11-24T04:51:14.003Z,11.43
2022-11-24T04:53:40.364Z,10.70
2022-11-24T04:56:07.977Z,13.77
2022-11-24T04:58:34.366Z,16.27
2022-11-24T05:01:00.729Z,14.98
2022-11-24T05:03:27.124Z,9.73
2022-11-24T05:05:53.457Z,11.07
2022-11-24T05:08:19.778Z,12.93
2022-11-24T05:10:46.100Z,12.80
2022-11-24T05:13:13.795Z,13.75
2022-11-24T05:15:41.410Z,15.23
2022-11-24T05:18:10.539Z,9.63
2022-11-24T05:20:37.170Z,13.10
2022-11-24T05:23:05.627Z,12.32
2022-11-24T05:25:32.909Z,13.85
2022-11-24T05:28:01.745Z,11.90
2022-11-24T05:30:29.057Z,13.82
2022-11-24T05:32:55.468Z,10.10
2022-11-24T05:35:22.062Z,13.32
2022-11-24T05:37:48.611Z,11.38
2022-11-24T05:40:15.347Z,15.13
2022-11-24T05:42:46.602Z,14.65
2022-11-24T05:45:17.530Z,10.88
2022-11-24T05:47:44.267Z,10.20
2022-11-24T05:50:12.851Z,18.00
2022-11-24T05:52:39.261Z,15.63
2022-11-24T05:55:06.585Z,22.33
2022-11-24T05:57:32.942Z,17.90
2022-11-24T05:59:59.417Z,12.27
2022-11-24T06:02:25.891Z,9.82
2022-11-24T06:04:52.638Z,9.20
2022-11-24T06:07:19.080Z,12.27
2022-11-24T06:09:45.867Z,13.50
2022-11-24T06:12:12.995Z,11.43
2022-11-24T06:14:39.681Z,13.45
2022-11-24T06:17:06.877Z,15.75
2022-11-24T06:19:35.501Z,9.00
2022-11-24T06:22:05.029Z,14.30
2022-11-24T06:24:31.402Z,16.90
2022-11-24T06:26:57.901Z,13.27
2022-11-24T06:29:24.271Z,15.05
2022-11-24T06:31:50.689Z,14.32
2022-11-24T06:34:17.192Z,15.52
2022-11-24T06:36:43.486Z,13.05
2022-11-24T06:39:10.237Z,11.98
2022-11-24T06:41:36.541Z,14.43
2022-11-24T06:44:04.835Z,14.00
2022-11-24T06:46:31.860Z,15.00
2022-11-24T06:48:59.631Z,11.20
2022-11-24T06:51:27.150Z,15.02
2022-11-24T06:53:53.579Z,14.07
2022-11-24T06:56:21.137Z,14.20
2022-11-24T06:58:49.813Z,12.73
2022-11-24T07:01:24.672Z,14.55
2022-11-24T07:03:52.241Z,18.50
2022-11-24T07:06:19.895Z,13.45
2022-11-24T07:08:47.280Z,21.38
2022-11-24T07:11:16.414Z,18.60
2022-11-24T07:13:43.624Z,11.25
2022-11-24T07:16:30.629Z,17.13
2022-11-24T07:18:57.088Z,13.05
2022-11-24T07:21:24.641Z,14.57
2022-11-24T07:23:52.530Z,9.77
2022-11-24T07:26:19.740Z,13.45
2022-11-24T07:28:46.056Z,15.68
2022-11-24T07:31:21.615Z,15.63
2022-11-24T07:33:49.923Z,17.17
2022-11-24T07:36:16.269Z,15.80
2022-11-24T07:38:42.741Z,16.73
2022-11-24T07:41:11.713Z,14.52
2022-11-24T07:43:38.818Z,20.63
2022-11-24T07:46:07.563Z,16.75
2022-11-24T07:48:34.679Z,21.80
2022-11-24T07:51:02.506Z,17.55
2022-11-24T07:53:29.222Z,12.30
2022-11-24T07:55:58.072Z,13.73
2022-11-24T07:58:27.666Z,15.88
2022-11-24T08:00:58.329Z,19.75
2022-11-24T08:03:27.514Z,16.73
2022-11-24T08:06:23.217Z,15.55
2022-11-24T08:08:47.278Z,13.10
2022-11-24T08:11:17.115Z,18.35
2022-11-24T08:13:44.515Z,15.23
2022-11-24T08:16:13.383Z,14.73
2022-11-24T08:18:39.841Z,17.70
2022-11-24T08:21:06.918Z,18.98
2022-11-24T08:23:34.137Z,12.30
2022-11-24T08:26:09.281Z,14.32
2022-11-24T08:28:36.659Z,16.48
2022-11-24T08:31:09.438Z,15.98
2022-11-24T08:33:36.240Z,15.88
2022-11-24T08:36:08.762Z,16.13
2022-11-24T08:38:35.267Z,20.60
2022-11-24T08:41:06.462Z,16.02
2022-11-24T08:43:33.541Z,15.80
2022-11-24T08:46:06.220Z,15.07
2022-11-24T08:48:33.532Z,13.15
2022-11-24T08:51:07.638Z,16.58
2022-11-24T08:53:34.115Z,15.10
2022-11-24T08:56:01.006Z,16.88
2022-11-24T08:58:28.899Z,14.73
2022-11-24T09:00:55.407Z,16.38
2022-11-24T09:03:22.027Z,11.35
2022-11-24T09:05:52.788Z,15.35
2022-11-24T09:08:19.424Z,16.48
2022-11-24T09:10:46.636Z,11.75
2022-11-24T09:13:12.925Z,14.10
2022-11-24T09:15:39.297Z,8.50
2022-11-24T09:18:06.000Z,14.02
2022-11-24T09:20:32.311Z,16.08
2022-11-24T09:22:58.683Z,9.65
2022-11-24T09:25:25.031Z,12.73
2022-11-24T09:27:51.646Z,12.57
2022-11-24T09:30:18.169Z,16.27
2022-11-24T09:32:44.619Z,15.80
2022-11-24T09:35:10.922Z,13.20
2022-11-24T09:37:37.305Z,15.38
2022-11-24T09:40:04.006Z,8.05
2022-11-24T09:42:58.954Z,14.20
2022-11-24T09:46:04.585Z,11.52
2022-11-24T09:48:36.262Z,15.73
2022-11-24T09:51:04.295Z,14.05
2022-11-24T09:53:32.645Z,12.68
2022-11-24T09:56:18.157Z,11.55
2022-11-24T09:59:18.768Z,12.00
2022-11-24T10:01:47.406Z,13.48
2022-11-24T10:04:19.944Z,7.60
2022-11-24T10:07:11.546Z,10.48
2022-11-24T10:10:02.913Z,10.40
2022-11-24T10:13:03.334Z,14.35
2022-11-24T10:15:35.738Z,11.77
2022-11-24T10:18:30.540Z,10.88
2022-11-24T10:21:32.896Z,9.35
2022-11-24T10:24:32.248Z,8.80
2022-11-24T10:27:10.606Z,8.18
2022-11-24T10:29:40.713Z,11.52
2022-11-24T10:32:26.825Z,7.72
2022-11-24T10:34:55.110Z,8.20
2022-11-24T10:37:30.181Z,8.82
2022-11-24T10:40:32.941Z,8.90
2022-11-24T10:42:59.565Z,9.32
2022-11-24T10:45:27.885Z,10.23
2022-11-24T10:47:54.206Z,11.30
2022-11-24T10:50:41.558Z,9.38
2022-11-24T10:53:25.616Z,11.35
2022-11-24T10:55:54.911Z,11.25
2022-11-24T10:58:26.643Z,9.65
2022-11-24T11:00:54.188Z,12.27
2022-11-24T11:03:26.195Z,12.55
2022-11-24T11:06:01.073Z,7.35
2022-11-24T11:08:32.563Z,9.75
2022-11-24T11:11:26.992Z,8.18
2022-11-24T11:14:03.974Z,7.78
2022-11-24T11:16:53.673Z,11.27
2022-11-24T11:19:49.003Z,8.38
2022-11-24T11:22:48.328Z,8.73
2022-11-24T11:25:18.786Z,9.20
2022-11-24T11:27:45.691Z,8.20
2022-11-24T11:36:11.783Z,10.80
2022-11-24T11:38:40.130Z,10.40
2022-11-24T11:41:14.423Z,11.52
2022-11-24T11:43:41.504Z,7.45
2022-11-24T11:46:07.956Z,12.18
2022-11-24T11:48:43.271Z,12.15
2022-11-24T11:51:25.565Z,10.75
2022-11-24T11:54:09.241Z,8.95
2022-11-24T11:56:45.034Z,11.07
2022-11-24T11:59:17.862Z,9.88
2022-11-24T12:02:13.740Z,11.30
2022-11-24T12:04:40.066Z,6.67
2022-11-24T12:07:25.046Z,10.88
2022-11-24T12:10:11.360Z,11.73
2022-11-24T12:13:00.718Z,11.70
2022-11-24T12:15:37.387Z,12.27
2022-11-24T12:18:33.097Z,9.13
2022-11-24T12:21:16.438Z,9.68
2022-11-24T12:24:23.788Z,8.48
2022-11-24T12:26:56.703Z,8.88
2022-11-24T12:29:44.859Z,11.52
2022-11-24T12:33:00.295Z,6.47
2022-11-24T12:35:36.961Z,7.75
2022-11-24T12:38:15.547Z,6.90
2022-11-24T12:40:47.159Z,8.68
2022-11-24T12:43:19.859Z,8.35
2022-11-24T12:46:01.913Z,11.52
2022-11-24T12:48:53.548Z,10.45
2022-11-24T12:51:27.563Z,10.43
2022-11-24T12:53:56.936Z,7.20
2022-11-24T12:56:37.806Z,12.73
2022-11-24T12:59:37.933Z,11.25
2022-11-24T13:02:09.430Z,10.15
2022-11-24T13:04:46.747Z,11.10
2022-11-24T13:07:18.055Z,7.10
2022-11-24T13:10:34.912Z,8.38
2022-11-24T13:13:10.829Z,10.10
2022-11-24T13:16:13.081Z,10.30
2022-11-24T13:19:09.434Z,9.15
2022-11-24T13:22:01.797Z,12.02
2022-11-24T13:24:31.020Z,8.30
2022-11-24T13:27:15.738Z,8.55
2022-11-24T13:29:43.817Z,11.13
2022-11-24T13:32:11.595Z,10.75
2022-11-24T13:34:42.484Z,9.45
2022-11-24T13:37:31.807Z,14.70
2022-11-24T13:40:11.375Z,10.60
2022-11-24T13:42:56.366Z,8.80
2022-11-24T13:45:50.344Z,11.15
2022-11-24T13:48:19.971Z,8.48
2022-11-24T13:50:49.552Z,8.25
2022-11-24T13:53:21.988Z,9.55
2022-11-24T13:55:57.978Z,9.15
2022-11-24T14:01:10.247Z,8.60
2022-11-24T14:03:55.398Z,6.20
2022-11-24T14:06:38.113Z,9.20
2022-11-24T14:09:21.927Z,7.35
2022-11-24T14:12:00.451Z,7.53
2022-11-24T14:14:26.902Z,12.93
2022-11-24T14:17:06.868Z,10.02
2022-11-24T14:19:33.236Z,9.93
2022-11-24T14:21:59.576Z,8.90
2022-11-24T14:24:39.723Z,10.65
2022-11-24T14:27:15.248Z,6.03
2022-11-24T14:29:55.447Z,9.70
2022-11-24T14:32:22.076Z,8.27
2022-11-24T14:34:48.910Z,10.65
2022-11-24T14:37:15.246Z,9.30
2022-11-24T14:39:42.731Z,8.65
2022-11-24T14:42:14.734Z,8.30
2022-11-24T14:44:40.991Z,12.57
2022-11-24T14:47:28.759Z,11.40
2022-11-24T14:49:58.244Z,9.40
2022-11-24T14:52:25.483Z,9.63
2022-11-24T14:55:03.961Z,9.93
2022-11-24T14:57:44.424Z,9.48
2022-11-24T15:00:20.936Z,8.18
2022-11-24T15:02:51.919Z,8.60
2022-11-24T15:05:21.010Z,10.77
2022-11-24T15:07:49.555Z,8.45
2022-11-24T15:10:33.475Z,10.60
2022-11-24T15:13:03.102Z,7.43
2022-11-24T15:15:36.010Z,6.28
2022-11-24T15:18:04.650Z,8.85
2022-11-24T15:20:37.269Z,8.13
2022-11-24T15:23:30.799Z,8.32
2022-11-24T15:26:03.143Z,9.15
2022-11-24T15:28:30.606Z,9.73
2022-11-24T15:31:05.062Z,11.95
2022-11-24T15:33:31.938Z,6.28
2022-11-24T15:35:59.499Z,13.18
2022-11-24T15:38:25.886Z,13.45
2022-11-24T15:40:55.250Z,7.70
2022-11-24T15:43:29.346Z,10.85
2022-11-24T15:45:56.220Z,9.73
2022-11-24T15:48:22.601Z,10.43
2022-11-24T15:50:49.793Z,9.52
2022-11-24T15:53:24.008Z,9.38
2022-11-24T15:55:50.500Z,8.57
2022-11-24T15:58:16.849Z,10.30
2022-11-24T16:00:43.948Z,10.88
2022-11-24T16:03:44.290Z,9.90
2022-11-24T16:05:57.679Z,8.43
2022-11-24T16:08:24.053Z,9.85
2022-11-24T16:10:51.193Z,13.32
2022-11-24T16:13:17.533Z,12.73
2022-11-24T16:15:45.509Z,10.23
2022-11-24T16:18:13.807Z,12.05
2022-11-24T16:20:40.184Z,15.30
2022-11-24T16:23:06.564Z,12.93
2022-11-24T16:25:33.412Z,11.77
2022-11-24T16:27:59.797Z,15.23
2022-11-24T16:30:26.214Z,13.18
2022-11-24T16:32:52.745Z,11.90
2022-11-24T16:35:19.604Z,17.73
2022-11-24T16:37:45.938Z,13.68
2022-11-24T16:40:12.834Z,13.95
2022-11-24T16:42:39.168Z,12.10
2022-11-24T16:45:05.887Z,17.77
2022-11-24T16:47:32.229Z,15.68
2022-11-24T16:49:58.818Z,11.30
2022-11-24T16:52:25.670Z,14.48
2022-11-24T16:54:52.134Z,16.30
2022-11-24T16:57:18.593Z,16.33
2022-11-24T16:59:46.116Z,18.45
2022-11-24T17:02:14.104Z,19.70
2022-11-24T17:04:40.661Z,13.23
2022-11-24T17:07:07.752Z,19.30
2022-11-24T17:09:40.103Z,24.70
2022-11-24T17:12:07.033Z,24.58
2022-11-24T17:14:33.784Z,30.33
2022-11-24T17:17:00.423Z,25.48
2022-11-24T17:19:26.845Z,29.73
2022-11-24T17:21:54.479Z,27.27
2022-11-24T17:24:20.796Z,20.98
2022-11-24T17:26:49.476Z,23.77
2022-11-24T17:29:15.925Z,23.05
2022-11-24T17:31:42.349Z,27.45
2022-11-24T17:34:11.673Z,18.85
2022-11-24T17:36:39.739Z,17.98
2022-11-24T17:39:07.165Z,18.05
2022-11-24T17:41:34.024Z,19.17
2022-11-24T17:44:00.466Z,17.13
2022-11-24T17:46:28.317Z,16.88
2022-11-24T17:48:55.290Z,21.10
2022-11-24T17:51:24.272Z,17.98
2022-11-24T17:53:52.362Z,14.27
2022-11-24T17:56:26.995Z,21.42
2022-11-24T17:58:55.376Z,17.15
2022-11-24T18:01:22.255Z,24.98
2022-11-24T18:03:53.462Z,21.77
2022-11-24T18:06:21.077Z,25.00
2022-11-24T18:08:48.342Z,24.80
2022-11-24T18:11:24.626Z,19.67
2022-11-24T18:14:00.338Z,21.50
2022-11-24T18:16:30.029Z,20.00
2022-11-24T18:19:07.716Z,20.02
2022-11-24T18:21:46.051Z,20.58
2022-11-24T18:24:13.635Z,20.50
2022-11-24T18:26:41.448Z,22.38
2022-11-24T18:29:10.616Z,19.05
2022-11-24T18:31:37.727Z,21.83
2022-11-24T18:34:07.936Z,21.20
2022-11-24T18:36:34.937Z,20.88
2022-11-24T18:39:06.407Z,21.40
2022-11-24T18:41:33.380Z,22.85
2022-11-24T18:44:07.524Z,18.05
2022-11-24T18:46:33.842Z,22.38
2022-11-24T18:49:00.323Z,23.80
2022-11-24T18:51:27.357Z,18.60
2022-11-24T18:53:54.562Z,21.13
2022-11-24T18:56:30.345Z,21.00
2022-11-24T18:58:56.938Z,21.45
2022-11-24T19:01:26.314Z,21.55
2022-11-24T19:03:58.083Z,25.25
2022-11-24T19:06:33.612Z,17.27
2022-11-24T19:09:02.315Z,22.27
2022-11-24T19:11:33.537Z,19.50
2022-11-24T19:14:01.190Z,17.08
2022-11-24T19:16:27.559Z,22.42
2022-11-24T19:18:59.733Z,18.20
2022-11-24T19:21:27.070Z,17.55
2022-11-24T19:23:56.595Z,16.77
2022-11-24T19:26:26.201Z,19.42
2022-11-24T19:28:52.647Z,16.60
2022-11-24T19:31:19.536Z,22.73
2022-11-24T19:33:46.288Z,24.80
2022-11-24T19:36:16.006Z,21.27
2022-11-24T19:38:43.259Z,17.98
2022-11-24T19:41:13.888Z,21.55
2022-11-24T19:43:41.362Z,18.52
2022-11-24T19:46:12.967Z,17.50
2022-11-24T19:48:42.841Z,17.45
2022-11-24T19:51:13.786Z,20.92
2022-11-24T19:53:40.600Z,19.10
2022-11-24T19:56:08.709Z,22.52
2022-11-24T19:58:36.950Z,20.55
2022-11-24T20:01:09.282Z,26.48
2022-11-24T20:03:36.955Z,23.05
2022-11-24T20:06:04.511Z,18.80
2022-11-24T20:08:32.129Z,26.88
2022-11-24T20:11:05.818Z,18.52
2022-11-24T20:13:33.891Z,21.15
2022-11-24T20:16:11.795Z,19.40
2022-11-24T20:18:42.218Z,27.67
2022-11-24T20:21:16.829Z,20.80
2022-11-24T20:23:44.636Z,19.33
2022-11-24T20:26:14.156Z,20.98
2022-11-24T20:28:40.783Z,21.83
2022-11-24T20:31:10.517Z,24.95
2022-11-24T20:33:37.808Z,26.65
2022-11-24T20:36:11.823Z,24.90
2022-11-24T20:38:39.722Z,24.63
2022-11-24T20:41:10.770Z,25.33
2022-11-24T20:43:37.902Z,31.80
2022-11-24T20:46:06.618Z,21.77
2022-11-24T20:48:34.481Z,19.08
2022-11-24T20:51:06.424Z,24.15
2022-11-24T20:53:33.169Z,22.27
2022-11-24T20:56:09.355Z,20.88
2022-11-24T20:58:36.853Z,24.63
2022-11-24T21:01:11.856Z,17.48
2022-11-24T21:03:43.001Z,25.50
2022-11-24T21:06:11.228Z,21.83
2022-11-24T21:08:38.968Z,21.27
2022-11-24T21:11:06.774Z,20.02
2022-11-24T21:13:34.607Z,22.85
2022-11-24T21:16:06.532Z,18.80
2022-11-24T21:18:33.845Z,21.55
2022-11-24T21:21:00.162Z,20.05
2022-11-24T21:23:26.470Z,17.50
2022-11-24T21:25:52.855Z,21.80
2022-11-24T21:28:19.152Z,25.77
2022-11-24T21:30:45.598Z,16.92
2022-11-24T21:33:12.010Z,16.77
2022-11-24T21:35:38.361Z,21.55
2022-11-24T21:38:04.770Z,28.92
2022-11-24T21:40:31.119Z,17.70
2022-11-24T21:42:59.284Z,16.58
2022-11-24T21:45:29.067Z,18.73
2022-11-24T21:48:04.737Z,20.20
2022-11-24T21:50:31.087Z,21.77
2022-11-24T21:53:03.324Z,17.90
2022-11-24T21:55:30.003Z,15.63
2022-11-24T21:57:56.356Z,18.55
2022-11-24T22:00:22.717Z,15.10
2022-11-24T22:02:49.174Z,18.95
2022-11-24T22:05:15.674Z,22.00
2022-11-24T22:07:42.052Z,17.58
2022-11-24T22:10:09.249Z,22.00
2022-11-24T22:12:35.597Z,17.00
2022-11-24T22:15:02.162Z,17.80
2022-11-24T22:17:31.007Z,16.88
2022-11-24T22:19:57.342Z,21.73
2022-11-24T22:22:23.798Z,16.27
2022-11-24T22:24:50.135Z,20.90
2022-11-24T22:27:16.456Z,12.48
2022-11-24T22:29:42.780Z,18.92
2022-11-24T22:32:09.142Z,12.65
2022-11-24T22:34:35.800Z,14.90
2022-11-24T22:37:02.289Z,13.77
2022-11-24T22:39:28.632Z,22.33
2022-11-24T22:41:54.973Z,17.70
2022-11-24T22:44:21.329Z,13.20
2022-11-24T22:46:47.707Z,11.63
2022-11-24T22:49:14.084Z,17.67
2022-11-24T22:51:40.514Z,18.13
2022-11-24T22:54:06.878Z,15.30
2022-11-24T22:56:34.178Z,19.90
2022-11-24T22:59:02.178Z,16.30
2022-11-24T23:01:30.348Z,16.17
2022-11-24T23:03:57.278Z,14.75
2022-11-24T23:06:26.247Z,17.40
2022-11-24T23:08:53.401Z,16.13
2022-11-24T23:11:31.633Z,12.15
2022-11-24T23:14:01.777Z,14.20
2022-11-24T23:16:29.162Z,14.85
2022-11-24T23:18:55.803Z,17.98
2022-11-24T23:21:31.085Z,15.45
2022-11-24T23:23:59.585Z,16.42
2022-11-24T23:26:32.126Z,18.50
2022-11-24T23:28:58.850Z,13.35
2022-11-24T23:31:30.315Z,16.55
2022-11-24T23:34:04.132Z,12.63
2022-11-24T23:36:31.710Z,12.57
2022-11-24T23:39:06.595Z,21.17
2022-11-24T23:41:33.228Z,16.97
2022-11-24T23:44:00.015Z,17.05
2022-11-24T23:46:27.745Z,13.57
2022-11-24T23:48:55.430Z,18.02
2022-11-24T23:51:29.756Z,12.65
2022-11-24T23:53:57.065Z,14.32
2022-11-24T23:56:32.644Z,15.90
2022-11-24T23:59:00.505Z,16.08
